Terminal Aerodrome Forecast
Issued by NWS

Home | Current Version | Previous Version | Text Only | Print | Product List | Glossary On
Versions: 1 2 3 4 5 6 7 8 9 10 11 12 13 14 15 16 17 18 19 20 21 22 23 24 25 26 27 28 29 30 31 32 33 34 35 36 37 38 39 40 41 42 43 44 45 46 47 48 49 50
000
FTUS45 KBOU 271101 AAA
TAFBJC
TAF AMD
KBJC 271101Z 2711/2806 VRB05KT 2SM -SN BKN007 OVC015
      TEMPO 2711/2713 5SM -SN SCT008 BKN015
     FM271300 VRB05KT P6SM SCT020 BKN035 OVC050
     FM271800 15009KT P6SM FEW030 BKN050
     FM280200 VRB05KT P6SM FEW050 SCT080 SCT120=

USA.gov is the U.S. government's official web portal to all federal, state and local government web resources and services.